Airfield :
LOGIN :

Register | Disclaimer

   EN    FR    IT 

 










Legend :    VFR   Marginal VFR   IFR   Intensive IFR   Very Intensive IFR
Visi :
Ceiling :
>= 8 km
>= 3000ft
5 to 8 km
1000 to 3000 ft
1500m to 5 km
500 to 1000 ft
800 to 1500m
200 to 500 ft
< 800m
< 200 ft
Symbols :   Thunderstorms  Fog  Heavy snow  Heavy precipitations  Wind > 20 kt
SIGMETs :     Misc.  Thunderstorms  Icing  Turbulence  Mountain Waves  Volcanic Ashes







- Airport Elevation : 32 ft
- IATA code : LKZ


EGUL - RAF Lakenheath

CURRENT METAR :
  • 161356Z 19008KT 9999 FEW033 21/15 A2995 RMK AO2A SLP145 T02050146 $

EXPIRED METARs :
  • 161256Z 19008KT 9999 CLR 21/14 A2995 RMK AO2A SLP145 T02050144 $
  • 161156Z 20009KT 9999 FEW011 SCT200 19/15 A2996 RMK AO2A SLP149 T01940146 10194 20134 58007 $

TAF TAF EGUL
Valid from the 16 at 12:00 until the 17 at 18:00 UTC


161206Z 1612/1718 21009KT 9999 SCT020 QNH2996INS
BECMG 1615/1616 21009KT 9999 BKN020 QNH2996INS
BECMG 1619/1620 22009KT 9999 BKN010 QNH3002INS
BECMG 1708/1709 22009KT 8000 -SHRA BKN010 QNH3005INS
TEMPO 1709/1715 BKN005
BECMG 1717/1718 VRB06KT 8000 -SHRA BKN020 QNH3010INS TX21/1614Z TN11/1706Z
No reported NOTAMs for that airfield.



MET'MAP, your aeronautical weather chart ! - Copyright ORBIFLY December 2007 - Disclaimer

ORBIFLY MET'MAP TEAM :

Programming & Development : Alexandra Zaïnal
Concept & Development : Baudouin d'Aumeries
Co-Development & Prog : Marc-Olivier Méhu
Technical & hardware support : Manuel Goepfert

Contact : metmap@orbifly.com




SOURCES & CREDITS :

   NOAA